Flight Track Log - Related Links

Times and Time Zones

All times are in EDT time to prevent confusion due to time zone crossing. See the N679EA flight status page for this flight to view local times or setup timezone preferences in your user account.

Time Position Orientation Groundspeed Altitude Reporting Facility
EDT Latitude Longitude Course Direction KTS MPH feet Rate Location/Type
Wed 12:06:17 PM 41.5667 -81.4850 238° Southwest 64 74 900  Level Cleveland Center
Wed 12:07:05 PM 41.5561 -81.5072 238° Southwest 91 105 1,400 661 Climbing Cleveland Center
Wed 12:08:06 PM 41.5767 -81.5325 317° Northwest 108 124 2,100 639 Climbing Cleveland Center
Wed 12:09:07 PM 41.5994 -81.5522 327° Northwest 111 128 2,700 571 Climbing Cleveland Center
Wed 12:10:33 PM 41.6303 -81.5917 316° Northwest 119 137 3,500 616 Climbing Cleveland Center
Wed 12:11:33 PM 41.6531 -81.6169 320° Northwest 119 137 4,200 650 Climbing Cleveland Center
Wed 12:12:33 PM 41.6819 -81.6453 324° Northwest 119 137 4,800 600 Climbing Cleveland Center
Wed 12:13:33 PM 41.7067 -81.6706 323° Northwest 119 137 5,400 550 Climbing Cleveland Center
Wed 12:14:33 PM 41.7336 -81.6989 322° Northwest 119 137 5,900 350 Climbing Cleveland Center
Wed 12:15:33 PM 41.7625 -81.7272 324° Northwest 125 144 6,100 350 Climbing Cleveland Center
Wed 12:16:33 PM 41.7956 -81.7611 323° Northwest 134 154 6,600 500 Climbing Cleveland Center
Wed 12:17:33 PM 41.8264 -81.7925 323° Northwest 134 154 7,100 450 Climbing Cleveland Center
Wed 12:18:33 PM 41.8553 -81.8236 321° Northwest 134 154 7,500 500 Climbing Cleveland Center
Wed 12:19:33 PM 41.8842 -81.8550 321° Northwest 134 154 8,100 500 Climbing Cleveland Center
Wed 12:20:33 PM 41.9044 -81.8972 303° West 134 154 8,500 450 Climbing Cleveland Center
Wed 12:21:33 PM 41.9250 -81.9367 305° West 134 154 9,000 500 Climbing Cleveland Center
Wed 12:22:33 PM 41.9472 -81.9792 305° West 134 154 9,500 500 Climbing Cleveland Center
Wed 12:23:33 PM 41.9675 -82.0214 303° West 139 160 10,000 500 Climbing Cleveland Center
Wed 12:24:33 PM 41.9900 -82.0639 305° West 139 160 10,500 450 Climbing Cleveland Center
Wed 12:25:33 PM 42.0083 -82.1033 302° West 139 160 10,900 450 Climbing Cleveland Center
Wed 12:26:33 PM 42.0325 -82.1514 304° West 139 160 11,400 500 Climbing Cleveland Center
Wed 12:27:33 PM 42.0528 -82.1911 305° West 139 160 11,900 500 Climbing Cleveland Center
Wed 12:28:33 PM 42.0772 -82.2308 310° West 139 160 12,400 500 Climbing Cleveland Center
Wed 12:29:33 PM 42.1039 -82.2681 314° West 139 160 12,900 500 Climbing Cleveland Center
Wed 12:30:33 PM 42.1283 -82.3078 310° West 144 166 13,400 500 Climbing Cleveland Center
Wed 12:31:33 PM 42.1444 -82.3475 299° West 134 154 13,900 500 Climbing Cleveland Center
Wed 12:32:33 PM 42.1647 -82.3872 305° West 123 142 14,400 500 Climbing Cleveland Center
Wed 12:33:33 PM 42.1828 -82.4297 300° West 123 142 14,900 500 Climbing Cleveland Center
Wed 12:34:33 PM 42.2031 -82.4667 307° West 123 142 15,400 500 Climbing Cleveland Center
Wed 12:35:33 PM 42.2253 -82.5094 305° West 128 147 15,900 350 Climbing Cleveland Center
Wed 12:36:33 PM 42.2472 -82.5550 303° West 128 147 16,100 50 Climbing Cleveland Center
Wed 12:37:33 PM 42.2694 -82.6006 303° West 139 160 16,000 -50 Descending Cleveland Center
Wed 12:38:33 PM 42.2917 -82.6464 303° West 139 160 16,000  Level Cleveland Center
Wed 12:39:33 PM 42.3117 -82.6892 302° West 139 160 16,000  Level Cleveland Center
Wed 12:40:33 PM 42.3317 -82.7319 302° West 139 160 16,000  Level Cleveland Center
Wed 12:41:33 PM 42.3539 -82.7747 305° West 139 160 16,000  Level Cleveland Center
Wed 12:42:33 PM 42.3758 -82.8178 305° West 139 160 16,000  Level Cleveland Center
Wed 12:43:33 PM 42.3981 -82.8606 305° West 139 160 16,000  Level Cleveland Center
Wed 12:44:33 PM 42.4181 -82.9036 302° West 139 160 16,000  Level Cleveland Center
Wed 12:45:33 PM 42.4400 -82.9494 303° West 139 160 16,000  Level Cleveland Center
Wed 12:46:33 PM 42.4600 -82.9953 301° West 145 167 16,000  Level Cleveland Center
Wed 12:47:33 PM 42.4819 -83.0383 305° West 145 167 16,000  Level Cleveland Center
Wed 12:48:33 PM 42.5039 -83.0814 305° West 145 167 16,000  Level Cleveland Center
Wed 12:49:33 PM 42.5258 -83.1272 303° West 145 167 16,000  Level Cleveland Center
Wed 12:50:33 PM 42.5478 -83.1706 305° West 145 167 16,000  Level Cleveland Center
Wed 12:51:33 PM 42.5675 -83.2164 300° West 145 167 16,000  Level Cleveland Center
Wed 12:52:33 PM 42.5894 -83.2597 305° West 145 167 16,000  Level Cleveland Center
Wed 12:53:33 PM 42.6114 -83.3056 303° West 145 167 16,000  Level Cleveland Center
Wed 12:54:33 PM 42.6311 -83.3489 302° West 145 167 16,000  Level Cleveland Center
Wed 12:55:33 PM 42.6553 -83.3922 307° West 145 167 16,000  Level Cleveland Center
Wed 12:56:33 PM 42.6664 -83.4408 287° West 145 167 16,000  Level Cleveland Center
Wed 12:57:33 PM 42.6736 -83.4947 280° West 145 167 16,000  Level Cleveland Center
Wed 12:58:33 PM 42.6806 -83.5461 280° West 145 167 16,000  Level Cleveland Center
Wed 12:59:33 PM 42.6897 -83.5972 284° West 145 167 16,000  Level Cleveland Center
Wed 01:00:33 PM 42.6986 -83.6514 283° West 145 167 16,000  Level Cleveland Center
Wed 01:01:33 PM 42.7078 -83.7028 284° West 145 167 16,000  Level Cleveland Center
Wed 01:02:33 PM 42.7144 -83.7567 280° West 145 167 16,000  Level Cleveland Center
Wed 01:03:33 PM 42.7361 -83.8031 302° West 145 167 16,000  Level Cleveland Center
Wed 01:04:33 PM 42.7600 -83.8467 307° West 145 167 16,000  Level Cleveland Center
Wed 01:05:33 PM 42.7794 -83.8931 300° West 145 167 16,000  Level Cleveland Center
Wed 01:06:33 PM 42.8011 -83.9367 304° West 145 167 16,000  Level Cleveland Center
Wed 01:07:33 PM 42.8228 -83.9803 304° West 145 167 16,000  Level Cleveland Center
Wed 01:08:33 PM 42.8464 -84.0269 305° West 150 173 16,000  Level Cleveland Center
Wed 01:09:33 PM 42.8658 -84.0706 301° West 150 173 16,000  Level Cleveland Center
Wed 01:10:33 PM 42.8897 -84.1142 307° West 150 173 16,000  Level Cleveland Center
Wed 01:11:09 PM 42.9031 -84.1397 305° West 139 160 16,000  Level Chicago Center
Wed 01:12:12 PM 42.9242 -84.1836 303° West 140 161 16,000  Level Chicago Center
Wed 01:13:14 PM 42.9464 -84.2292 304° West 142 163 16,000  Level Chicago Center
Wed 01:14:16 PM 42.9672 -84.2728 303° West 139 160 16,000  Level Chicago Center
Wed 01:15:18 PM 42.9889 -84.3172 304° West 138 159 16,000  Level Chicago Center
Wed 01:16:20 PM 43.0139 -84.3694 303° West 139 160 16,000  Level Chicago Center
Wed 01:17:22 PM 43.0350 -84.4139 303° West 140 161 16,000  Level Chicago Center
Wed 01:18:24 PM 43.0569 -84.4594 303° West 144 166 16,000  Level Chicago Center
Wed 01:19:26 PM 43.0786 -84.5050 303° West 141 162 16,000  Level Chicago Center
Wed 01:20:28 PM 43.0997 -84.5492 303° West 143 165 16,000  Level Chicago Center
Wed 01:21:31 PM 43.1222 -84.5958 303° West 146 168 16,000  Level Chicago Center
Wed 01:22:33 PM 43.1478 -84.6503 303° West 141 162 16,000  Level Chicago Center
Wed 01:23:35 PM 43.1692 -84.6950 303° West 141 162 16,000  Level Chicago Center
Wed 01:24:37 PM 43.1908 -84.7406 303° West 142 163 16,000  Level Chicago Center
Wed 01:25:39 PM 43.2122 -84.7858 303° West 142 163 16,000  Level Chicago Center
Wed 01:26:41 PM 43.2336 -84.8308 303° West 141 162 16,000  Level Chicago Center
Wed 01:27:43 PM 43.2589 -84.8847 303° West 138 159 16,000  Level Chicago Center
Wed 01:28:45 PM 43.2797 -84.9289 303° West 140 161 16,000  Level Chicago Center
Wed 01:29:47 PM 43.3014 -84.9747 303° West 142 163 16,000  Level Chicago Center
Wed 01:30:49 PM 43.3242 -85.0233 303° West 144 166 16,000  Level Chicago Center
Wed 01:31:51 PM 43.3456 -85.0689 303° West 141 162 16,000  Level Chicago Center
Wed 01:32:53 PM 43.3669 -85.1147 303° West 142 163 16,000  Level Chicago Center
Wed 01:33:56 PM 43.3881 -85.1597 303° West 143 165 16,000  Level Chicago Center
Wed 01:34:58 PM 43.4097 -85.2064 303° West 140 161 16,000  Level Chicago Center
Wed 01:36:00 PM 43.4344 -85.2594 303° West 142 163 16,000  Level Chicago Center
Wed 01:37:02 PM 43.4561 -85.3058 303° West 142 163 16,000  Level Chicago Center
Wed 01:38:04 PM 43.4769 -85.3506 303° West 138 159 16,000 -56 Level Chicago Center
Wed 01:38:50 PM 43.4922 -85.3844 302° West 136 157 15,900 -56 Descending Minneapolis Center
Wed 01:39:52 PM 43.5147 -85.4319 303° West 143 165 15,900 48 Level Minneapolis Center
Wed 01:40:54 PM 43.5372 -85.4792 303° West 147 169 16,000 48 Climbing Minneapolis Center
Wed 01:41:56 PM 43.5578 -85.5264 301° West 146 168 16,000  Level Minneapolis Center
Wed 01:42:58 PM 43.5786 -85.5711 303° West 140 161 16,000  Level Minneapolis Center
Wed 01:44:00 PM 43.5992 -85.6158 302° West 139 160 16,000  Level Minneapolis Center
Wed 01:45:02 PM 43.6244 -85.6714 302° West 141 162 16,000  Level Minneapolis Center
Wed 01:46:04 PM 43.6461 -85.7164 304° West 140 161 16,000  Level Minneapolis Center
Wed 01:47:06 PM 43.6675 -85.7631 302° West 143 165 16,000  Level Minneapolis Center
Wed 01:48:08 PM 43.6875 -85.8092 301° West 142 163 16,000  Level Minneapolis Center
Wed 01:49:10 PM 43.7094 -85.8553 303° West 142 163 16,000 97 Level Minneapolis Center
Wed 01:50:12 PM 43.7286 -85.8992 301° West 136 157 16,200 242 Climbing Minneapolis Center
Wed 01:51:14 PM 43.7517 -85.9486 303° West 130 150 16,500 290 Climbing Minneapolis Center
Wed 01:52:16 PM 43.7706 -85.9903 302° West 128 147 16,800 242 Climbing Minneapolis Center
Wed 01:53:18 PM 43.7894 -86.0325 302° West 128 147 17,000 240 Climbing Minneapolis Center
Wed 01:54:21 PM 43.8081 -86.0750 301° West 129 148 17,300 240 Climbing Minneapolis Center
Wed 01:55:23 PM 43.8269 -86.1161 303° West 127 146 17,500 242 Climbing Minneapolis Center
Wed 01:56:25 PM 43.8464 -86.1589 302° West 130 150 17,800 97 Climbing Minneapolis Center
Wed 01:57:27 PM 43.8686 -86.2086 302° West 128 147 17,700 48 Descending Minneapolis Center
Wed 01:58:29 PM 43.8878 -86.2508 302° West 129 148 17,900 145 Climbing Minneapolis Center
Wed 01:59:31 PM 43.9083 -86.2969 302° West 136 157 18,000 48 Climbing Minneapolis Center
Wed 02:00:33 PM 43.9300 -86.3436 303° West 140 161 18,000  Level Minneapolis Center
Wed 02:01:35 PM 43.9514 -86.3925 301° West 145 167 18,000  Level Minneapolis Center
Wed 02:02:37 PM 43.9728 -86.4394 302° West 146 168 18,000  Level Minneapolis Center
Wed 02:03:39 PM 43.9986 -86.4983 301° West 148 170 18,000  Level Minneapolis Center
Wed 02:04:41 PM 44.0197 -86.5461 302° West 146 168 18,000  Level Minneapolis Center
Wed 02:05:43 PM 44.0411 -86.5928 303° West 145 167 18,000  Level Minneapolis Center
Wed 02:07:00 PM 44.0677 -86.6530 302° West  Level FlightAware Approximate
Wed 02:08:50 PM 44.1053 -86.7386 302° West 146 168 18,000  Level Minneapolis Center
Wed 02:09:52 PM 44.1311 -86.7956 302° West 146 168 18,000  Level Minneapolis Center
Wed 02:10:54 PM 44.1519 -86.8439 301° West 146 168 18,000  Level Minneapolis Center
Wed 02:11:56 PM 44.1733 -86.8933 301° West 148 170 18,000  Level Minneapolis Center
Wed 02:12:58 PM 44.1942 -86.9389 303° West 142 163 18,000  Level Minneapolis Center
Wed 02:14:00 PM 44.2122 -86.9822 302° West  Level FlightAware Approximate
Wed 02:14:00 PM 44.2150 -86.9872 301° West 144 166 18,000  Level Minneapolis Center
Wed 02:15:02 PM 44.2350 -87.0333 301° West 142 163 18,200 242 Climbing Minneapolis Center
Wed 02:16:04 PM 44.2583 -87.0856 302° West 134 154 18,500 290 Climbing Minneapolis Center
Wed 02:17:06 PM 44.2775 -87.1281 302° West 130 150 18,800 242 Climbing Minneapolis Center
Wed 02:18:08 PM 44.2983 -87.1697 305° West 126 145 19,000 288 Climbing Minneapolis Center
Wed 02:19:11 PM 44.3206 -87.2142 305° West 128 147 19,400 288 Climbing Minneapolis Center
Wed 02:20:13 PM 44.3411 -87.2567 304° West 135 155 19,600 176 Climbing Minneapolis Center
Wed 02:21:27 PM 44.3631 -87.3008 305° West 137 158 19,800 221 Climbing Minneapolis Center
Wed 02:22:29 PM 44.3853 -87.3636 296° West 132 152 20,100 145 Climbing Minneapolis Center
Wed 02:23:31 PM 44.3994 -87.4119 292° West 138 159 20,100  Level Minneapolis Center
Wed 02:24:33 PM 44.4142 -87.4639 292° West 145 167 20,100 -48 Level Minneapolis Center
Wed 02:25:35 PM 44.4286 -87.5164 291° West 142 163 20,000  Descending Minneapolis Center
Wed 02:26:38 PM 44.4428 -87.5661 292° West 138 159 20,100  Climbing Minneapolis Center
Wed 02:27:40 PM 44.4600 -87.6253 292° West 139 160 20,000 -48 Descending Minneapolis Center
Wed 02:28:42 PM 44.4747 -87.6758 292° West 142 163 20,000  Level Minneapolis Center
Wed 02:29:56 PM 44.4892 -87.7272 292° West 142 163 20,000  Level Minneapolis Center
Wed 02:30:58 PM 44.5011 -87.7908 285° West 141 162 20,000  Level Minneapolis Center
Wed 02:32:00 PM 44.5111 -87.8439 285° West 141 162 20,000  Level Minneapolis Center
Wed 02:33:02 PM 44.5208 -87.8972 284° West 142 163 20,000  Level Minneapolis Center
Wed 02:34:05 PM 44.5325 -87.9583 285° West 141 162 20,000  Level Minneapolis Center
Wed 02:35:07 PM 44.5422 -88.0103 285° West 138 159 20,000  Level Minneapolis Center
Wed 02:36:09 PM 44.5528 -88.0633 286° West 142 163 20,000  Level Minneapolis Center
Wed 02:37:11 PM 44.5642 -88.1244 285° West 137 158 20,000  Level Minneapolis Center
Wed 02:38:13 PM 44.5744 -88.1753 286° West 135 155 20,000  Level Minneapolis Center
Wed 02:39:15 PM 44.5853 -88.2261 287° West 136 157 20,000  Level Minneapolis Center
Wed 02:40:17 PM 44.5983 -88.2761 290° West 137 158 20,000  Level Minneapolis Center
Wed 02:41:19 PM 44.6167 -88.3239 298° West 140 161 20,000  Level Minneapolis Center
Wed 02:42:21 PM 44.6378 -88.3825 297° West 145 167 20,000  Level Minneapolis Center
Wed 02:43:23 PM 44.6572 -88.4286 301° West 134 154 20,000  Level Minneapolis Center
Wed 02:44:25 PM 44.6772 -88.4731 302° West 138 159 20,000 -48 Level Minneapolis Center
Wed 02:45:27 PM 44.6992 -88.5208 303° West 148 170 19,900 -194 Descending Minneapolis Center
Wed 02:46:29 PM 44.7225 -88.5692 304° West 148 170 19,600 -290 Descending Minneapolis Center
Wed 02:47:31 PM 44.7456 -88.6178 304° West 152 175 19,300 -387 Descending Minneapolis Center
Wed 02:48:33 PM 44.7731 -88.6781 303° West 156 180 18,800 -480 Descending Minneapolis Center
Wed 02:49:36 PM 44.7978 -88.7306 304° West 160 184 18,300 -432 Descending Minneapolis Center
Wed 02:50:38 PM 44.8233 -88.7833 304° West 163 188 17,900 -242 Descending Minneapolis Center
Wed 02:51:40 PM 44.8486 -88.8372 304° West 165 190 17,800 -290 Descending Minneapolis Center
Wed 02:52:42 PM 44.8747 -88.8919 304° West 166 191 17,300 -484 Descending Minneapolis Center
Wed 02:53:44 PM 44.9044 -88.9547 304° West 166 191 16,800 -435 Descending Minneapolis Center
Wed 02:54:46 PM 44.9292 -89.0072 304° West 161 185 16,400 -435 Descending Minneapolis Center
Wed 02:55:48 PM 44.9528 -89.0603 302° West 160 184 15,900 -435 Descending Minneapolis Center
Wed 02:56:50 PM 44.9786 -89.1117 305° West 160 184 15,500 -387 Descending Minneapolis Center
Wed 02:57:52 PM 45.0025 -89.1633 303° West 159 183 15,100 -339 Descending Minneapolis Center
Wed 02:58:54 PM 45.0292 -89.2228 302° West 153 176 14,800 -290 Descending Minneapolis Center
Wed 02:59:56 PM 45.0522 -89.2714 304° West 150 173 14,500 -190 Descending Minneapolis Center
Wed 03:01:00 PM 45.0756 -89.3222 303° West 149 171 14,400 -47 Descending Minneapolis Center
Wed 03:02:03 PM 45.0964 -89.3672 303° West 139 160 14,400  Level Minneapolis Center
Wed 03:03:05 PM 45.1181 -89.4133 304° West 139 160 14,400  Level Minneapolis Center
Wed 03:04:07 PM 45.1394 -89.4592 303° West 140 161 14,400  Level Minneapolis Center
Wed 03:05:09 PM 45.1633 -89.5136 302° West 137 158 14,400  Level Minneapolis Center
Wed 03:06:11 PM 45.1844 -89.5586 304° West 137 158 14,400  Level Minneapolis Center
Wed 03:07:13 PM 45.2053 -89.6036 303° West 136 157 14,400  Level Minneapolis Center
Wed 03:08:15 PM 45.2253 -89.6469 303° West 133 153 14,400 -48 Level Minneapolis Center
Wed 03:09:17 PM 45.2461 -89.6942 302° West 139 160 14,300 -48 Descending Minneapolis Center
Wed 03:10:19 PM 45.2675 -89.7389 304° West 138 159 14,300 -97 Level Minneapolis Center
Wed 03:11:21 PM 45.2925 -89.7953 302° West 140 161 14,100 -194 Descending Minneapolis Center
Wed 03:12:23 PM 45.3156 -89.8439 304° West 145 167 13,900 -145 Descending Minneapolis Center
Wed 03:13:25 PM 45.3375 -89.8928 303° West 146 168 13,800 -145 Descending Minneapolis Center
Wed 03:14:27 PM 45.3597 -89.9414 303° West 146 168 13,600 -97 Descending Minneapolis Center
Wed 03:15:29 PM 45.3811 -89.9883 303° West 142 163 13,600 -192 Level Minneapolis Center
Wed 03:16:32 PM 45.4036 -90.0386 303° West 148 170 13,200 -384 Descending Minneapolis Center
Wed 03:17:34 PM 45.4269 -90.0903 303° West 154 177 12,800 -435 Descending Minneapolis Center
Wed 03:18:36 PM 45.4564 -90.1517 304° West 155 178 12,300 -435 Descending Minneapolis Center
Wed 03:19:38 PM 45.4817 -90.2006 306° West 153 176 11,900 -435 Descending Minneapolis Center
Wed 03:20:40 PM 45.5072 -90.2503 306° West 155 178 11,400 -484 Descending Minneapolis Center
Wed 03:21:42 PM 45.5367 -90.2981 311° West 159 183 10,900 -435 Descending Minneapolis Center
Wed 03:22:44 PM 45.5833 -90.3053 354° North 174 200 10,500 -532 Descending Minneapolis Center
Wed 03:23:46 PM 45.5978 -90.3592 291° West 163 188 9,800 -823 Descending Minneapolis Center
Wed 03:24:48 PM 45.6122 -90.4292 286° West 155 178 8,800 -919 Descending Minneapolis Center
Wed 03:25:50 PM 45.6250 -90.4875 287° West 154 177 7,900 -871 Descending Minneapolis Center
Wed 03:26:52 PM 45.6414 -90.5436 293° West 153 176 7,000 -823 Descending Minneapolis Center
Wed 03:27:54 PM 45.6547 -90.5911 292° West 155 178 6,200 -726 Descending Minneapolis Center
Wed 03:28:56 PM 45.6931 -90.6389 319° Northwest 160 184 5,500 -484 Descending Minneapolis Center
Wed 03:29:58 PM 45.7281 -90.6703 328° Northwest 154 177 5,200 -290 Descending Minneapolis Center
Wed 03:31:00 PM 45.7561 -90.7128 313° West 151 174 4,900 -290 Descending Minneapolis Center
Wed 03:32:00 PM 45.7651 -90.7709 300° West  Level FlightAware Approximate
Wed 03:39:00 PM 45.9031 -91.1159 300° West  Level FlightAware Approximate
Wed 03:40:00 PM 45.9225 -91.1656 298° West  Level FlightAware Approximate
Wed 03:41:00 PM 45.9414 -91.2156 298° West  Level FlightAware Approximate
Wed 03:42:00 PM 45.9602 -91.2658 298° West  Level FlightAware Approximate
Wed 03:43:00 PM 45.9790 -91.3159 298° West  Level FlightAware Approximate
Wed 03:44:00 PM 45.9978 -91.3661 298° West  Level FlightAware Approximate
Wed 03:45:00 PM 46.0165 -91.4163 298° West  Level FlightAware Approximate
Wed 03:46:00 PM 46.0167 -91.4333 270° West  Level FlightAware Approximate
Wed 03:47:00 PM 46.0253 -91.4443 270° West  Level Estimated
Wed 03:48:00 PM 46.0253 -91.4443 270° West  Level Estimated
Wed 03:49:00 PM 46.0253 -91.4443 270° West  Level Estimated
Wed 03:50:00 PM 46.0253 -91.4443 270° West  Level Estimated
Wed 03:51:00 PM 46.0253 -91.4443 270° West  Level Estimated

Login

Don't have an account? Register now (free) for customized features, flight alerts, and more!